Time;durP1;ratioP1;P1;durP2;ratioP2;P2;SDS_P1;SDS_P2;PMS_P1;PMS_P2;Temp;Humidity;BMP_temperature;BMP_pressure;BME280_temperature;BME280_humidity;BME280_pressure;Samples;Min_cycle;Max_cycle;Signal;HPM_P1;HPM_P2
2022/03/05 00:01:04;;;;;;;14.23;8.35;;;-0.80;76.50;;;;;;6311707;22;19999;-71
2022/03/05 00:03:30;;;;;;;16.42;8.75;;;-0.90;76.40;;;;;;6312209;22;20205;-71
2022/03/05 00:05:57;;;;;;;15.90;8.48;;;-0.80;76.30;;;;;;6312164;22;20230;-72
2022/03/05 00:08:23;;;;;;;16.00;8.40;;;-0.90;76.20;;;;;;6282862;22;20007;-71
2022/03/05 00:10:49;;;;;;;15.60;8.88;;;-0.90;76.20;;;;;;6285428;22;20391;-72
2022/03/05 00:13:15;;;;;;;14.30;7.93;;;-0.90;76.10;;;;;;6311881;22;20069;-72
2022/03/05 00:15:43;;;;;;;17.83;8.38;;;-0.90;76.10;;;;;;6284584;22;20066;-73
2022/03/05 00:18:09;;;;;;;15.80;8.43;;;-0.90;76.20;;;;;;6284909;22;20030;-72
2022/03/05 00:20:35;;;;;;;13.65;7.18;;;-1.00;76.30;;;;;;6285097;22;20015;-72
2022/03/05 00:23:01;;;;;;;13.55;7.50;;;-1.10;76.40;;;;;;6310404;22;20357;-73
2022/03/05 00:25:28;;;;;;;15.80;7.78;;;-1.00;76.20;;;;;;6310602;22;20006;-71
2022/03/05 00:27:54;;;;;;;17.35;8.15;;;-1.00;76.20;;;;;;6284578;22;20003;-72
2022/03/05 00:30:20;;;;;;;15.13;7.75;;;-1.10;76.30;;;;;;6311430;22;19996;-72
2022/03/05 00:32:46;;;;;;;14.98;7.70;;;-1.10;76.30;;;;;;6311739;22;20003;-72
2022/03/05 00:35:13;;;;;;;17.15;7.90;;;-1.00;76.10;;;;;;6311195;22;20264;-71
2022/03/05 00:37:39;;;;;;;14.98;7.53;;;-1.10;76.20;;;;;;6283305;22;20007;-72
2022/03/05 00:40:07;;;;;;;14.85;8.05;;;-1.10;76.00;;;;;;6283951;22;20003;-72
2022/03/05 00:42:33;;;;;;;14.68;7.22;;;-1.10;76.00;;;;;;6311318;22;19995;-70
2022/03/05 00:45:00;;;;;;;16.63;8.38;;;-1.10;76.10;;;;;;6284511;22;20004;-71
2022/03/05 00:47:26;;;;;;;17.60;7.95;;;-1.20;76.20;;;;;;6283636;22;20007;-71
2022/03/05 00:49:53;;;;;;;17.75;7.53;;;-1.10;76.20;;;;;;6284527;22;20360;-70
2022/03/05 00:52:20;;;;;;;16.83;8.52;;;-1.20;76.10;;;;;;6284049;22;20014;-71
2022/03/05 00:54:46;;;;;;;16.13;7.60;;;-1.20;76.60;;;;;;6310617;22;20254;-71
2022/03/05 00:57:12;;;;;;;15.88;7.85;;;-1.30;76.80;;;;;;6311420;22;20074;-72
2022/03/05 00:59:40;;;;;;;15.93;7.90;;;-1.30;76.80;;;;;;6311380;22;20080;-71
2022/03/05 01:02:06;;;;;;;18.75;8.32;;;-1.30;76.80;;;;;;6284196;22;20266;-72
2022/03/05 01:04:34;;;;;;;15.77;7.60;;;-1.30;76.70;;;;;;6311129;22;19999;-71
2022/03/05 01:06:59;;;;;;;28.13;8.07;;;-1.20;76.80;;;;;;6311518;22;20022;-71
2022/03/05 01:09:25;;;;;;;17.15;7.75;;;-1.30;76.80;;;;;;6282804;22;20000;-72
2022/03/05 01:11:51;;;;;;;16.95;8.35;;;-1.20;76.80;;;;;;6311307;22;20023;-71
2022/03/05 01:14:19;;;;;;;14.50;7.25;;;-1.30;77.10;;;;;;6310674;22;20062;-71
2022/03/05 01:16:45;;;;;;;14.52;7.78;;;-1.30;77.30;;;;;;6284291;22;20011;-72
2022/03/05 01:19:11;;;;;;;14.00;7.43;;;-1.30;77.40;;;;;;6311071;22;20132;-70
2022/03/05 01:21:37;;;;;;;15.95;7.65;;;-1.40;77.50;;;;;;6311720;22;19999;-71
2022/03/05 01:24:03;;;;;;;15.52;8.40;;;-1.30;77.60;;;;;;6281598;22;19999;-72
2022/03/05 01:26:30;;;;;;;15.80;8.35;;;-1.40;77.60;;;;;;6311049;22;20070;-73
2022/03/05 01:28:56;;;;;;;16.38;7.85;;;-1.40;77.90;;;;;;6311074;22;20004;-71
2022/03/05 01:31:23;;;;;;;18.05;8.65;;;-1.40;78.20;;;;;;6311215;22;20010;-70
2022/03/05 01:33:49;;;;;;;18.77;9.27;;;-1.40;78.20;;;;;;6310624;22;20010;-71
2022/03/05 01:36:15;;;;;;;17.45;9.48;;;-1.40;78.20;;;;;;6311503;22;20198;-72
2022/03/05 01:38:41;;;;;;;16.02;8.30;;;-1.40;78.40;;;;;;6282558;22;20086;-72
2022/03/05 01:41:07;;;;;;;17.77;9.07;;;-1.40;78.40;;;;;;6311227;22;20376;-71
2022/03/05 01:43:33;;;;;;;15.90;8.25;;;-1.50;78.60;;;;;;6309932;22;20007;-71
2022/03/05 01:45:59;;;;;;;19.65;9.80;;;-1.40;78.60;;;;;;6310702;22;19995;-72
2022/03/05 01:48:25;;;;;;;21.48;8.60;;;-1.40;78.50;;;;;;6310531;22;20209;-71
2022/03/05 01:50:51;;;;;;;19.02;8.85;;;-1.40;78.70;;;;;;6310819;22;20003;-71
2022/03/05 01:53:17;;;;;;;17.27;8.48;;;-1.50;78.70;;;;;;6282272;22;20030;-72
2022/03/05 01:55:44;;;;;;;16.25;8.40;;;-1.50;78.80;;;;;;6310414;22;20543;-72
2022/03/05 01:58:10;;;;;;;17.20;8.77;;;-1.50;78.90;;;;;;6283435;22;20011;-71
2022/03/05 02:00:36;;;;;;;18.58;8.48;;;-1.60;79.00;;;;;;6282830;22;20268;-71
2022/03/05 02:03:02;;;;;;;18.58;9.50;;;-1.60;79.10;;;;;;6310205;22;20006;-71
2022/03/05 02:05:28;;;;;;;18.05;8.93;;;-1.60;79.10;;;;;;6310669;22;20003;-72
2022/03/05 02:07:54;;;;;;;19.02;9.23;;;-1.60;79.00;;;;;;6309130;22;20002;-71
2022/03/05 02:10:21;;;;;;;16.55;8.85;;;-1.60;79.10;;;;;;6310772;22;20053;-71
2022/03/05 02:12:48;;;;;;;17.55;8.77;;;-1.60;79.10;;;;;;6283684;22;20367;-71
2022/03/05 02:15:14;;;;;;;16.67;8.25;;;-1.60;79.10;;;;;;6310820;22;20018;-71
2022/03/05 02:17:40;;;;;;;18.17;8.23;;;-1.70;79.30;;;;;;6310662;22;20003;-70
2022/03/05 02:20:09;;;;;;;15.70;8.27;;;-1.70;79.40;;;;;;6283433;22;20038;-71
2022/03/05 02:22:35;;;;;;;15.80;7.97;;;-1.70;79.30;;;;;;6282153;22;20003;-72
2022/03/05 02:25:04;;;;;;;15.82;7.70;;;-1.70;79.50;;;;;;6283034;22;20250;-72
2022/03/05 02:27:31;;;;;;;15.60;8.27;;;-1.70;79.40;;;;;;6310360;22;20022;-72
2022/03/05 02:29:57;;;;;;;20.73;8.98;;;-1.70;79.40;;;;;;6310280;22;20006;-72
2022/03/05 02:32:23;;;;;;;18.50;9.30;;;-1.70;79.50;;;;;;6309953;22;20009;-70
2022/03/05 02:34:49;;;;;;;17.30;8.90;;;-1.70;79.60;;;;;;6310421;22;20006;-71
2022/03/05 02:37:17;;;;;;;19.65;8.60;;;-1.70;79.50;;;;;;6310630;22;19995;-71
2022/03/05 02:39:44;;;;;;;19.17;8.80;;;-1.70;79.60;;;;;;6281322;22;20057;-72
2022/03/05 02:42:10;;;;;;;16.90;8.63;;;-1.70;79.70;;;;;;6310069;22;20000;-71
2022/03/05 02:44:36;;;;;;;18.48;9.18;;;-1.70;79.80;;;;;;6283282;22;20007;-71
2022/03/05 02:47:03;;;;;;;18.75;9.38;;;-1.70;79.80;;;;;;6310406;22;20052;-71
2022/03/05 02:49:29;;;;;;;17.98;9.43;;;-1.80;80.00;;;;;;6310411;22;19999;-72
2022/03/05 02:51:55;;;;;;;15.95;8.70;;;-1.90;80.20;;;;;;6282721;22;20015;-72
2022/03/05 02:54:21;;;;;;;16.23;8.88;;;-1.90;80.50;;;;;;6308512;22;20250;-70
2022/03/05 02:56:47;;;;;;;17.20;10.00;;;-2.00;80.70;;;;;;6310085;22;20017;-70
2022/03/05 02:59:13;;;;;;;18.40;9.15;;;-2.00;81.00;;;;;;6309983;22;20082;-70
2022/03/05 03:01:46;;;;;;;18.92;9.18;;;-2.00;81.10;;;;;;6310061;22;19999;-70
2022/03/05 03:04:12;;;;;;;20.10;10.05;;;-2.10;81.30;;;;;;6310039;22;20053;-72
2022/03/05 03:06:39;;;;;;;19.88;9.48;;;-2.00;81.40;;;;;;6310602;22;19999;-71
2022/03/05 03:09:05;;;;;;;17.35;8.88;;;-2.10;81.50;;;;;;6308299;22;20011;-72
2022/03/05 03:11:31;;;;;;;19.95;9.45;;;-2.00;81.50;;;;;;6284411;22;20007;-72
2022/03/05 03:13:57;;;;;;;18.60;9.43;;;-2.00;81.70;;;;;;6312233;22;20388;-72
2022/03/05 03:16:23;;;;;;;22.80;10.05;;;-2.00;81.70;;;;;;6312141;22;20372;-72
2022/03/05 03:18:49;;;;;;;17.13;9.43;;;-2.00;81.60;;;;;;6259342;22;20007;-72
2022/03/05 03:21:15;;;;;;;18.98;9.23;;;-2.00;81.70;;;;;;6312047;22;20003;-72
2022/03/05 03:23:41;;;;;;;21.30;10.65;;;-2.00;81.90;;;;;;6310521;22;19995;-72
2022/03/05 03:26:07;;;;;;;20.42;9.95;;;-2.00;81.80;;;;;;6312369;22;20022;-72
2022/03/05 03:28:32;;;;;;;21.73;10.75;;;-2.10;82.20;;;;;;6311896;22;20078;-72
2022/03/05 03:30:59;;;;;;;20.20;10.52;;;-2.10;82.40;;;;;;6284692;22;20396;-71
2022/03/05 03:33:25;;;;;;;23.13;11.27;;;-2.00;82.30;;;;;;6311169;22;20245;-72
2022/03/05 03:35:51;;;;;;;20.00;10.48;;;-2.10;82.40;;;;;;6285129;22;20003;-71
2022/03/05 03:38:17;;;;;;;21.65;11.18;;;-2.10;82.70;;;;;;6283155;22;20272;-72
2022/03/05 03:40:43;;;;;;;20.70;11.05;;;-2.10;82.60;;;;;;6312399;22;19996;-72
2022/03/05 03:43:09;;;;;;;21.00;10.98;;;-2.10;82.70;;;;;;6285185;22;20311;-72
2022/03/05 03:45:35;;;;;;;21.90;11.27;;;-2.20;82.70;;;;;;6312444;22;20007;-70
2022/03/05 03:48:01;;;;;;;20.60;10.88;;;-2.20;82.80;;;;;;6312113;22;19999;-70
2022/03/05 03:50:27;;;;;;;22.08;11.85;;;-2.10;82.80;;;;;;6311920;22;20074;-70
2022/03/05 03:52:54;;;;;;;21.75;10.75;;;-2.10;82.80;;;;;;6283306;22;20000;-72
2022/03/05 03:55:22;;;;;;;21.80;11.75;;;-2.20;82.80;;;;;;6312218;22;19999;-70
2022/03/05 03:57:48;;;;;;;22.42;10.80;;;-2.20;82.80;;;;;;6259654;22;20003;-71
2022/03/05 04:00:19;;;;;;;26.75;12.52;;;-2.20;82.80;;;;;;6312012;22;20010;-71
2022/03/05 04:02:45;;;;;;;22.27;10.73;;;-2.20;82.70;;;;;;6284865;22;20003;-72
2022/03/05 04:05:15;;;;;;;20.55;10.15;;;-2.20;82.80;;;;;;6311890;22;19995;-72
2022/03/05 04:10:26;;;;;;;22.70;10.98;;;-2.20;82.70;;;;;;6311821;22;20419;-72
2022/03/05 04:12:52;;;;;;;22.65;11.23;;;-2.30;83.10;;;;;;6312102;22;20010;-72
2022/03/05 04:15:19;;;;;;;23.02;11.20;;;-2.30;83.20;;;;;;6253714;22;20378;-72
2022/03/05 04:17:45;;;;;;;22.85;11.70;;;-2.30;83.40;;;;;;6279472;22;19999;-71
2022/03/05 04:20:11;;;;;;;25.27;12.27;;;-2.30;83.60;;;;;;6280619;22;20312;-71
2022/03/05 04:22:39;;;;;;;25.45;13.15;;;-2.40;84.00;;;;;;6251954;22;20008;-70
2022/03/05 04:25:05;;;;;;;23.75;12.70;;;-2.40;84.20;;;;;;6279394;22;20078;-71
2022/03/05 04:27:31;;;;;;;24.70;13.55;;;-2.30;84.40;;;;;;6253996;22;20369;-72
2022/03/05 04:29:58;;;;;;;26.45;13.35;;;-2.40;84.80;;;;;;6254121;22;20011;-72
2022/03/05 04:32:24;;;;;;;31.40;15.88;;;-2.50;85.30;;;;;;6281006;22;20000;-71
2022/03/05 04:34:50;;;;;;;29.20;14.73;;;-2.50;85.80;;;;;;6252516;22;20004;-72
2022/03/05 04:37:15;;;;;;;26.90;14.98;;;-2.50;86.20;;;;;;6280867;22;20030;-71
2022/03/05 04:39:41;;;;;;;29.30;15.85;;;-2.60;86.70;;;;;;6278170;22;20276;-72
2022/03/05 04:42:07;;;;;;;36.63;17.58;;;-2.60;87.10;;;;;;6253707;22;20004;-72
2022/03/05 04:44:34;;;;;;;34.40;17.48;;;-2.60;87.50;;;;;;6280922;22;20000;-72
2022/03/05 04:46:59;;;;;;;33.55;17.73;;;-2.60;87.90;;;;;;6280401;22;20101;-71
2022/03/05 04:49:25;;;;;;;35.50;17.80;;;-2.60;87.90;;;;;;6280610;22;20007;-72
2022/03/05 04:51:51;;;;;;;36.28;17.70;;;-2.60;88.30;;;;;;6280166;22;20000;-70
2022/03/05 04:54:17;;;;;;;37.15;18.92;;;-2.70;88.70;;;;;;6278723;22;20007;-71
2022/03/05 04:56:43;;;;;;;35.63;17.40;;;-2.70;88.90;;;;;;6280460;22;20079;-70
2022/03/05 04:59:09;;;;;;;37.25;18.45;;;-2.80;89.50;;;;;;6280671;22;20012;-71
2022/03/05 05:01:35;;;;;;;36.75;18.38;;;-2.70;89.60;;;;;;6280118;22;20401;-70
2022/03/05 05:04:01;;;;;;;33.95;16.80;;;-2.70;89.60;;;;;;6280345;22;19996;-70
2022/03/05 05:06:27;;;;;;;42.65;18.77;;;-2.80;89.90;;;;;;6227614;22;20152;-70
2022/03/05 05:08:54;;;;;;;37.67;18.50;;;-2.80;90.00;;;;;;6227186;22;20377;-72
2022/03/05 05:11:20;;;;;;;40.28;20.63;;;-2.80;90.20;;;;;;6253560;22;20030;-72
2022/03/05 05:13:46;;;;;;;39.58;19.10;;;-2.80;90.30;;;;;;6259110;22;20026;-71
2022/03/05 05:16:12;;;;;;;36.08;19.45;;;-2.80;90.40;;;;;;6280106;22;20011;-70
2022/03/05 05:18:38;;;;;;;34.60;18.15;;;-2.70;90.30;;;;;;6278670;22;20027;-70
2022/03/05 05:21:04;;;;;;;41.47;19.23;;;-2.80;90.20;;;;;;6280446;22;20003;-72
2022/03/05 05:23:30;;;;;;;43.28;19.63;;;-2.80;90.30;;;;;;6277076;22;20015;-71
2022/03/05 05:25:56;;;;;;;38.90;19.65;;;-2.80;90.40;;;;;;6279484;22;20012;-71
2022/03/05 05:28:22;;;;;;;35.83;19.20;;;-2.80;90.40;;;;;;6280551;22;20008;-71
2022/03/05 05:30:48;;;;;;;38.60;20.40;;;-2.70;90.40;;;;;;6280499;22;20007;-72
2022/03/05 05:33:14;;;;;;;40.08;20.08;;;-2.70;90.40;;;;;;6280190;22;20006;-71
2022/03/05 05:35:40;;;;;;;39.38;19.65;;;-2.70;90.50;;;;;;6278119;22;20007;-70
2022/03/05 05:38:06;;;;;;;38.83;19.70;;;-2.70;90.50;;;;;;6278215;22;20301;-71
2022/03/05 05:40:32;;;;;;;42.90;20.58;;;-2.70;90.40;;;;;;6280075;22;20029;-71
2022/03/05 05:43:04;;;;;;;37.55;18.48;;;-2.70;90.50;;;;;;6278416;22;20004;-70
2022/03/05 05:45:30;;;;;;;41.67;19.40;;;-2.80;90.50;;;;;;6279843;22;20365;-72
2022/03/05 05:47:58;;;;;;;39.67;19.70;;;-2.80;90.70;;;;;;6279964;22;20000;-70
2022/03/05 05:50:24;;;;;;;38.83;18.23;;;-2.80;90.60;;;;;;6278293;22;20004;-69
2022/03/05 05:52:50;;;;;;;37.38;17.92;;;-2.80;90.60;;;;;;6278554;22;20011;-69
2022/03/05 05:55:15;;;;;;;39.03;18.48;;;-2.80;90.50;;;;;;6279665;22;20012;-69
2022/03/05 05:57:41;;;;;;;37.58;17.80;;;-2.80;90.50;;;;;;6279923;22;20000;-70
2022/03/05 06:00:08;;;;;;;37.17;18.92;;;-2.80;90.40;;;;;;6279381;22;20050;-71
2022/03/05 06:02:34;;;;;;;36.88;19.38;;;-2.80;90.40;;;;;;6278078;22;19999;-72
2022/03/05 06:05:03;;;;;;;36.17;18.35;;;-2.90;90.30;;;;;;6279981;22;20006;-71
2022/03/05 06:07:29;;;;;;;40.00;19.85;;;-3.00;90.50;;;;;;6278316;22;20257;-71
2022/03/05 06:09:55;;;;;;;34.85;18.52;;;-3.00;90.70;;;;;;6279246;22;20034;-71
2022/03/05 06:12:21;;;;;;;37.85;19.67;;;-3.00;90.70;;;;;;6278647;22;20010;-71
2022/03/05 06:14:48;;;;;;;36.88;17.50;;;-3.00;90.80;;;;;;6303430;22;20054;-71
2022/03/05 06:17:15;;;;;;;37.70;17.77;;;-3.10;90.90;;;;;;6283389;22;20017;-71
2022/03/05 06:19:45;;;;;;;34.58;18.17;;;-3.10;91.10;;;;;;6283053;22;20018;-71
2022/03/05 06:22:11;;;;;;;37.47;19.55;;;-3.00;91.30;;;;;;6283195;22;20400;-71
2022/03/05 06:24:36;;;;;;;39.03;20.08;;;-3.00;91.10;;;;;;6308765;22;20002;-71
2022/03/05 06:27:02;;;;;;;38.35;20.77;;;-3.00;91.30;;;;;;6309952;22;20368;-71
2022/03/05 06:29:28;;;;;;;32.03;17.75;;;-3.00;91.20;;;;;;6309855;22;20046;-71
2022/03/05 06:31:58;;;;;;;34.33;16.95;;;-2.90;91.10;;;;;;6310439;22;20005;-71
2022/03/05 06:34:27;;;;;;;37.15;18.08;;;-2.80;90.90;;;;;;6310227;22;20246;-71
2022/03/05 06:36:55;;;;;;;38.35;17.60;;;-2.70;90.70;;;;;;6283429;22;20273;-71
2022/03/05 06:39:21;;;;;;;32.92;16.50;;;-2.60;90.20;;;;;;6308385;22;20010;-70
2022/03/05 06:41:49;;;;;;;36.17;18.23;;;-2.50;89.90;;;;;;6310159;22;20003;-70
2022/03/05 06:44:15;;;;;;;37.33;18.42;;;-2.50;89.70;;;;;;6310155;22;19999;-71
2022/03/05 06:46:41;;;;;;;38.47;19.27;;;-2.40;89.40;;;;;;6309952;22;20041;-70
2022/03/05 06:49:07;;;;;;;30.50;16.48;;;-2.40;89.40;;;;;;6283145;22;20003;-71
2022/03/05 06:51:33;;;;;;;35.53;19.05;;;-2.50;89.60;;;;;;6309858;22;20022;-69
2022/03/05 06:53:59;;;;;;;33.50;16.73;;;-2.40;89.60;;;;;;6308213;22;20057;-70
2022/03/05 06:56:25;;;;;;;32.95;18.13;;;-2.40;89.80;;;;;;6282419;22;20269;-70
2022/03/05 06:58:51;;;;;;;32.78;16.63;;;-2.30;89.60;;;;;;6283013;22;20003;-71
2022/03/05 07:01:17;;;;;;;35.38;16.95;;;-2.30;89.60;;;;;;6309621;22;20264;-69
2022/03/05 07:03:43;;;;;;;32.17;16.58;;;-2.30;89.50;;;;;;6309682;22;20003;-71
2022/03/05 07:06:09;;;;;;;37.65;18.67;;;-2.20;89.30;;;;;;6282724;22;20086;-70
2022/03/05 07:08:36;;;;;;;35.13;17.67;;;-2.10;89.10;;;;;;6308786;22;20030;-71
2022/03/05 07:11:04;;;;;;;38.72;18.35;;;-2.00;88.70;;;;;;6309839;22;20011;-70
2022/03/05 07:13:30;;;;;;;33.70;17.67;;;-1.90;88.40;;;;;;6309422;22;20472;-71
2022/03/05 07:15:56;;;;;;;36.03;18.08;;;-1.80;88.20;;;;;;6310190;22;20007;-70
2022/03/05 07:18:21;;;;;;;34.92;17.23;;;-1.70;88.10;;;;;;6309730;22;20309;-69
2022/03/05 07:20:47;;;;;;;34.55;17.13;;;-1.60;87.60;;;;;;6308698;22;20078;-72
2022/03/05 07:23:13;;;;;;;31.77;16.83;;;-1.50;87.40;;;;;;6308028;22;20003;-70
2022/03/05 07:25:39;;;;;;;32.80;16.45;;;-1.30;86.90;;;;;;6281968;22;20265;-69
2022/03/05 07:28:10;;;;;;;37.10;18.65;;;-1.20;86.30;;;;;;6282014;22;20075;-71
2022/03/05 07:30:38;;;;;;;59.63;32.92;;;-1.10;85.60;;;;;;6283117;22;20011;-71
2022/03/05 07:33:05;;;;;;;49.72;26.35;;;-1.00;84.90;;;;;;6310420;22;20006;-69
2022/03/05 07:35:31;;;;;;;49.13;25.85;;;-0.90;84.40;;;;;;6310081;22;20022;-69
2022/03/05 07:37:57;;;;;;;37.33;19.25;;;-0.70;83.70;;;;;;6308431;22;19995;-70
2022/03/05 07:40:23;;;;;;;32.75;17.38;;;-0.50;83.30;;;;;;6310214;22;20003;-69
2022/03/05 07:42:49;;;;;;;35.58;17.90;;;-0.40;82.70;;;;;;6309600;22;19995;-71
2022/03/05 07:45:15;;;;;;;33.67;17.77;;;-0.30;82.70;;;;;;6310307;22;20263;-71
2022/03/05 07:47:41;;;;;;;37.20;19.13;;;-0.20;82.50;;;;;;6310009;22;20079;-70
2022/03/05 07:50:08;;;;;;;33.20;17.95;;;-0.10;81.50;;;;;;6281943;22;20007;-72
2022/03/05 07:52:34;;;;;;;32.85;17.50;;;-0.10;81.50;;;;;;6307562;22;20010;-70
2022/03/05 07:55:00;;;;;;;33.83;17.52;;;0.00;81.30;;;;;;6308332;22;20003;-68
2022/03/05 07:57:28;;;;;;;34.25;18.38;;;0.10;80.80;;;;;;6307217;22;20042;-69
2022/03/05 07:59:55;;;;;;;36.78;18.05;;;0.20;80.50;;;;;;6310631;22;20031;-69
2022/03/05 08:02:21;;;;;;;38.88;19.00;;;0.20;80.60;;;;;;6284180;22;20007;-69
2022/03/05 08:04:49;;;;;;;32.63;18.27;;;0.30;80.40;;;;;;6311012;22;20094;-69
2022/03/05 08:07:17;;;;;;;32.10;17.33;;;0.40;80.20;;;;;;6283897;22;20031;-70
2022/03/05 08:09:43;;;;;;;30.15;17.15;;;0.50;79.80;;;;;;6309515;22;20242;-71
2022/03/05 08:12:10;;;;;;;38.88;18.63;;;0.60;79.50;;;;;;6310601;22;19999;-70
2022/03/05 08:14:41;;;;;;;29.10;16.15;;;0.70;78.70;;;;;;6310621;22;20015;-71
2022/03/05 08:17:07;;;;;;;29.73;15.68;;;0.70;78.40;;;;;;6284277;22;20035;-71
2022/03/05 08:19:33;;;;;;;29.23;15.43;;;0.80;77.90;;;;;;6311971;22;20000;-71
2022/03/05 08:21:59;;;;;;;30.25;15.23;;;1.00;77.10;;;;;;6311746;22;20021;-71
2022/03/05 08:24:25;;;;;;;26.00;14.95;;;1.30;76.60;;;;;;6310189;22;20004;-71
2022/03/05 08:26:51;;;;;;;26.63;14.30;;;1.90;75.70;;;;;;6311790;22;19996;-72
2022/03/05 08:29:20;;;;;;;28.38;14.10;;;3.00;72.20;;;;;;6259383;22;20436;-70
2022/03/05 08:31:47;;;;;;;25.85;14.75;;;3.70;70.10;;;;;;6312012;22;20010;-70
2022/03/05 08:34:13;;;;;;;27.23;14.48;;;4.30;68.80;;;;;;6311411;22;20006;-71
2022/03/05 08:36:39;;;;;;;27.77;14.15;;;5.70;66.70;;;;;;6283675;22;20003;-69
2022/03/05 08:39:05;;;;;;;21.70;12.57;;;6.70;63.50;;;;;;6310713;22;20000;-69
2022/03/05 08:41:31;;;;;;;30.17;15.88;;;7.60;60.50;;;;;;6311922;22;20023;-70
2022/03/05 08:43:56;;;;;;;21.17;12.52;;;7.10;59.40;;;;;;6311148;22;20257;-70
2022/03/05 08:46:26;;;;;;;22.45;12.23;;;6.30;61.10;;;;;;6311883;22;20106;-70
2022/03/05 08:49:03;;;;;;;21.50;12.05;;;6.20;60.60;;;;;;6311106;22;20269;-70
2022/03/05 08:51:32;;;;;;;22.20;11.27;;;5.80;60.60;;;;;;6282962;22;20103;-70
2022/03/05 08:53:58;;;;;;;18.33;11.18;;;5.60;61.20;;;;;;6308864;22;20124;-71
2022/03/05 08:56:24;;;;;;;19.83;11.50;;;5.60;61.40;;;;;;6282813;22;20424;-71
2022/03/05 08:58:50;;;;;;;18.40;10.52;;;5.70;61.40;;;;;;6309144;22;20090;-70
2022/03/05 09:01:16;;;;;;;18.00;11.00;;;5.70;62.00;;;;;;6308840;22;20060;-71
2022/03/05 09:03:42;;;;;;;24.92;12.88;;;6.20;61.40;;;;;;6282021;22;20010;-71
2022/03/05 09:06:08;;;;;;;19.83;10.80;;;6.70;60.30;;;;;;6309508;22;20094;-62
2022/03/05 09:08:37;;;;;;;16.48;9.82;;;6.90;60.40;;;;;;6307720;22;20325;-64
2022/03/05 09:11:07;;;;;;;20.73;10.70;;;7.10;59.70;;;;;;6308349;22;20056;-62
2022/03/05 09:13:33;;;;;;;20.63;11.48;;;7.50;59.00;;;;;;6309481;22;20384;-65
2022/03/05 09:16:02;;;;;;;18.77;10.23;;;7.50;58.00;;;;;;6308125;22;20007;-63
2022/03/05 09:18:28;;;;;;;18.40;11.13;;;7.90;57.50;;;;;;6212810;22;20512;-62
2022/03/05 09:20:54;;;;;;;22.65;10.52;;;7.80;57.20;;;;;;6282051;22;20007;-62
2022/03/05 09:24:01;;;;;;;16.00;10.02;;;8.10;57.00;;;;;;6305616;22;20343;-64
2022/03/05 09:26:29;;;;;;;17.90;10.48;;;7.60;55.70;;;;;;6282096;22;20025;-63
2022/03/05 09:29:01;;;;;;;18.75;9.85;;;6.50;57.80;;;;;;6228753;22;20714;-62
2022/03/05 09:31:27;;;;;;;16.55;9.18;;;6.20;57.90;;;;;;6309555;22;20006;-63
2022/03/05 09:33:53;;;;;;;16.33;9.23;;;6.10;59.20;;;;;;6309674;22;20017;-63
2022/03/05 09:36:20;;;;;;;15.10;8.95;;;6.30;58.60;;;;;;6309709;22;20006;-64
2022/03/05 09:38:48;;;;;;;15.63;9.00;;;6.40;58.20;;;;;;6307297;22;20007;-63
2022/03/05 09:41:14;;;;;;;16.15;9.45;;;6.70;57.50;;;;;;6309474;22;20409;-62
2022/03/05 09:43:40;;;;;;;15.05;9.10;;;6.60;57.90;;;;;;6308769;22;20030;-64
2022/03/05 09:46:06;;;;;;;16.98;9.95;;;7.10;57.60;;;;;;6281911;22;20429;-66
2022/03/05 09:48:32;;;;;;;17.27;9.70;;;7.50;56.10;;;;;;6309291;22;20268;-64
2022/03/05 09:50:58;;;;;;;17.92;9.60;;;7.40;56.90;;;;;;6309518;22;20264;-63
2022/03/05 09:53:29;;;;;;;15.25;8.60;;;7.70;57.00;;;;;;6179373;22;20013;-64
2022/03/05 09:55:55;;;;;;;18.25;9.00;;;7.90;56.10;;;;;;6308083;22;20007;-63
2022/03/05 09:58:20;;;;;;;15.40;9.00;;;8.40;55.90;;;;;;6281349;22;20380;-64
2022/03/05 10:00:47;;;;;;;18.83;8.65;;;8.10;54.40;;;;;;6309278;22;20265;-64
2022/03/05 10:03:15;;;;;;;14.57;8.00;;;8.00;55.20;;;;;;6307428;22;20010;-63
2022/03/05 10:05:42;;;;;;;17.15;9.10;;;8.50;55.20;;;;;;6308673;22;20137;-65
2022/03/05 10:08:20;;;;;;;14.90;8.88;;;8.20;54.70;;;;;;6207616;22;20004;-62
2022/03/05 10:10:52;;;;;;;13.63;7.97;;;8.80;54.50;;;;;;6309338;22;20030;-62
2022/03/05 10:13:20;;;;;;;27.23;9.10;;;8.50;54.30;;;;;;6309150;22;20003;-62
2022/03/05 10:15:47;;;;;;;15.25;8.40;;;9.10;54.00;;;;;;6308741;22;20010;-64
2022/03/05 10:18:16;;;;;;;18.90;8.18;;;9.40;53.40;;;;;;6308944;22;20003;-64
2022/03/05 10:20:50;;;;;;;25.58;8.48;;;9.40;52.50;;;;;;6309060;22;20002;-64
2022/03/05 10:23:18;;;;;;;17.13;7.03;;;9.30;52.70;;;;;;6307255;22;20003;-63
2022/03/05 10:25:52;;;;;;;12.32;6.75;;;9.20;52.30;;;;;;6309975;22;20365;-61
2022/03/05 10:28:28;;;;;;;10.57;6.28;;;9.00;51.00;;;;;;6310785;22;20317;-64
2022/03/05 10:31:02;;;;;;;21.13;6.68;;;8.50;52.00;;;;;;6283644;22;20086;-64
2022/03/05 10:33:35;;;;;;;14.85;6.60;;;8.40;51.60;;;;;;6283517;22;20078;-64
2022/03/05 10:36:07;;;;;;;9.88;5.57;;;8.20;52.20;;;;;;6311167;22;20003;-64
2022/03/05 10:38:53;;;;;;;11.75;6.47;;;8.50;51.60;;;;;;6308773;22;20073;-64
2022/03/05 10:41:40;;;;;;;11.27;5.43;;;8.90;51.80;;;;;;6310698;22;20356;-62
2022/03/05 10:44:08;;;;;;;11.70;6.47;;;9.40;51.60;;;;;;6310039;22;20042;-65
2022/03/05 10:46:41;;;;;;;10.27;6.30;;;9.30;49.70;;;;;;6309623;22;20052;-65
2022/03/05 10:49:35;;;;;;;13.95;7.05;;;9.00;50.20;;;;;;6309542;22;20284;-64
2022/03/05 10:52:04;;;;;;;12.63;6.20;;;9.00;51.20;;;;;;6309981;22;20004;-64
2022/03/05 10:54:41;;;;;;;10.02;5.93;;;9.10;51.30;;;;;;6308727;22;20027;-66
2022/03/05 10:57:19;;;;;;;11.15;6.40;;;9.00;50.20;;;;;;6311003;22;20003;-65
2022/03/05 10:59:47;;;;;;;9.82;6.00;;;9.00;50.70;;;;;;6309619;22;19999;-63
2022/03/05 11:02:18;;;;;;;10.55;6.13;;;9.00;51.10;;;;;;6310285;22;19995;-63
2022/03/05 11:04:45;;;;;;;10.25;6.07;;;8.70;51.20;;;;;;6310693;22;20003;-65
2022/03/05 11:07:12;;;;;;;11.50;6.28;;;9.00;51.70;;;;;;6310319;22;20011;-65
2022/03/05 11:09:39;;;;;;;12.15;6.78;;;9.40;50.20;;;;;;6309231;22;20380;-64
2022/03/05 11:12:07;;;;;;;10.32;5.75;;;9.10;49.90;;;;;;6310336;22;20026;-65
2022/03/05 11:14:33;;;;;;;11.65;6.20;;;9.10;51.10;;;;;;6310378;22;20368;-65
2022/03/05 11:17:00;;;;;;;9.73;5.90;;;9.30;51.50;;;;;;6310354;22;20372;-66
2022/03/05 11:19:26;;;;;;;10.25;6.05;;;9.50;50.50;;;;;;6310486;22;19999;-65
2022/03/05 11:21:53;;;;;;;12.02;6.80;;;9.70;49.90;;;;;;6283264;22;20014;-65
2022/03/05 11:24:24;;;;;;;12.13;7.07;;;10.40;48.90;;;;;;6308969;22;19991;-64
2022/03/05 11:26:52;;;;;;;19.05;10.57;;;10.70;49.60;;;;;;6308444;22;20245;-64
2022/03/05 11:29:19;;;;;;;24.88;15.93;;;10.50;48.90;;;;;;6283552;22;20003;-65
2022/03/05 11:31:47;;;;;;;11.45;7.65;;;10.10;48.80;;;;;;6309887;22;20038;-65
2022/03/05 11:34:24;;;;;;;14.40;6.68;;;9.90;50.70;;;;;;6313033;22;20007;-63
2022/03/05 11:37:01;;;;;;;12.57;6.90;;;10.10;49.70;;;;;;6311935;22;20013;-63
2022/03/05 11:39:37;;;;;;;13.40;7.13;;;10.20;50.20;;;;;;6310226;22;20003;-64
2022/03/05 11:42:09;;;;;;;13.13;8.07;;;10.00;50.20;;;;;;6285121;22;20030;-64
2022/03/05 11:44:43;;;;;;;9.48;6.20;;;9.70;49.50;;;;;;6312204;22;20074;-63
2022/03/05 11:47:37;;;;;;;12.00;6.82;;;9.80;50.80;;;;;;6312512;22;20071;-64
2022/03/05 11:50:08;;;;;;;9.65;5.43;;;9.90;50.10;;;;;;6306538;22;20292;-63
2022/03/05 11:52:40;;;;;;;13.43;7.30;;;10.00;50.30;;;;;;6310625;22;20363;-64
2022/03/05 11:55:12;;;;;;;9.80;6.22;;;10.50;50.90;;;;;;6311444;22;20003;-63
2022/03/05 11:57:43;;;;;;;13.32;6.38;;;10.40;48.80;;;;;;6284943;22;20013;-66
2022/03/05 12:00:12;;;;;;;13.13;6.72;;;10.10;50.20;;;;;;6311465;22;20082;-63
2022/03/05 12:02:45;;;;;;;10.98;6.60;;;10.50;50.40;;;;;;6312277;22;19999;-65
2022/03/05 12:05:44;;;;;;;13.18;7.30;;;10.40;48.70;;;;;;6311598;22;20014;-65
2022/03/05 12:08:22;;;;;;;12.18;6.95;;;9.70;50.20;;;;;;6308907;22;20003;-64
2022/03/05 12:11:13;;;;;;;12.05;6.50;;;9.50;50.90;;;;;;6311376;22;20029;-66
2022/03/05 12:13:41;;;;;;;12.82;8.05;;;9.60;50.80;;;;;;6310941;22;20373;-65
2022/03/05 12:16:24;;;;;;;13.05;8.00;;;9.70;49.30;;;;;;6311539;22;20006;-65
2022/03/05 12:18:50;;;;;;;13.23;8.00;;;9.80;51.40;;;;;;6311407;22;20010;-64
2022/03/05 12:21:23;;;;;;;14.73;8.18;;;9.90;51.50;;;;;;6311769;22;19995;-63
2022/03/05 12:23:50;;;;;;;13.70;7.55;;;10.00;52.40;;;;;;6310447;22;20006;-64
2022/03/05 12:26:17;;;;;;;12.10;7.32;;;10.40;50.50;;;;;;6312149;22;20071;-64
2022/03/05 12:28:44;;;;;;;14.50;8.10;;;10.50;50.40;;;;;;6311773;22;20272;-64
2022/03/05 12:31:19;;;;;;;12.45;7.88;;;10.60;50.00;;;;;;6311156;22;20003;-65
2022/03/05 12:33:46;;;;;;;17.75;8.48;;;10.10;50.80;;;;;;6311871;22;20013;-65
2022/03/05 12:36:20;;;;;;;16.45;9.43;;;9.70;52.20;;;;;;6311169;22;20004;-64
2022/03/05 12:38:59;;;;;;;14.23;9.30;;;9.90;52.90;;;;;;6310022;22;20078;-64
2022/03/05 12:41:27;;;;;;;15.40;8.82;;;10.00;53.10;;;;;;6311644;22;19999;-64